createdAt,value
2019-05-06T00:00:34.275Z,97.10
2019-05-06T00:03:05.012Z,99.90
2019-05-06T00:05:34.732Z,99.90
2019-05-06T00:08:04.331Z,99.90
2019-05-06T00:10:35.554Z,99.50
2019-05-06T00:13:05.200Z,99.90
2019-05-06T00:15:34.686Z,99.90
2019-05-06T00:18:04.649Z,99.90
2019-05-06T00:20:34.990Z,99.90
2019-05-06T00:23:14.235Z,99.90
2019-05-06T00:26:01.161Z,99.90
2019-05-06T00:29:04.321Z,99.90
2019-05-06T00:31:34.513Z,99.90
2019-05-06T00:34:04.441Z,99.90
2019-05-06T00:36:34.441Z,99.90
2019-05-06T00:39:16.139Z,99.90
2019-05-06T00:41:49.013Z,99.90
2019-05-06T00:44:18.533Z,99.90
2019-05-06T00:46:48.000Z,99.90
2019-05-06T00:49:17.503Z,99.00
2019-05-06T00:51:46.999Z,99.90
2019-05-06T00:54:19.793Z,99.90
2019-05-06T00:56:49.284Z,99.80
2019-05-06T00:59:18.810Z,99.90
2019-05-06T01:01:48.290Z,99.70
2019-05-06T01:04:17.837Z,99.90
2019-05-06T01:06:47.405Z,99.90
2019-05-06T01:09:18.801Z,99.90
2019-05-06T01:11:50.074Z,99.90
2019-05-06T01:14:25.253Z,99.90
2019-05-06T01:16:54.882Z,99.90
2019-05-06T01:19:24.314Z,99.90
2019-05-06T01:21:54.101Z,99.90
2019-05-06T01:24:23.930Z,99.90
2019-05-06T01:26:53.763Z,99.90
2019-05-06T01:29:24.039Z,99.90
2019-05-06T01:31:54.418Z,99.90
2019-05-06T01:34:24.505Z,99.90
2019-05-06T01:36:54.683Z,99.90
2019-05-06T01:39:49.289Z,99.80
2019-05-06T01:42:27.891Z,99.90
2019-05-06T01:44:57.367Z,99.90
2019-05-06T01:47:26.910Z,99.90
2019-05-06T01:49:56.382Z,99.90
2019-05-06T01:52:25.854Z,99.90
2019-05-06T01:54:55.361Z,99.90
2019-05-06T01:57:24.841Z,99.90
2019-05-06T01:59:54.342Z,99.90
2019-05-06T02:02:25.018Z,99.90
2019-05-06T02:04:54.499Z,99.90
2019-05-06T02:07:24.244Z,99.90
2019-05-06T02:09:54.416Z,99.90
2019-05-06T02:12:24.567Z,99.90
2019-05-06T02:14:54.377Z,99.90
2019-05-06T02:17:24.060Z,99.90
2019-05-06T02:19:54.607Z,99.90
2019-05-06T02:22:31.587Z,99.90
2019-05-06T02:25:06.341Z,99.90
2019-05-06T02:27:39.008Z,99.90
2019-05-06T02:30:28.114Z,99.90
2019-05-06T02:33:15.436Z,99.90
2019-05-06T02:36:06.488Z,99.90
2019-05-06T02:38:46.068Z,99.90
2019-05-06T02:41:06.366Z,99.90
2019-05-06T02:43:35.820Z,99.90
2019-05-06T02:46:05.349Z,99.90
2019-05-06T02:49:00.074Z,99.90
2019-05-06T02:51:33.362Z,99.90
2019-05-06T02:54:03.246Z,99.90
2019-05-06T02:56:33.434Z,99.90
2019-05-06T02:59:03.964Z,99.90
2019-05-06T03:01:34.160Z,99.90
2019-05-06T03:04:04.580Z,99.90
2019-05-06T03:06:34.336Z,99.90
2019-05-06T03:09:05.504Z,99.90
2019-05-06T03:11:35.023Z,99.90
2019-05-06T03:14:04.609Z,99.90
2019-05-06T03:16:34.084Z,99.90
2019-05-06T03:19:04.689Z,99.90
2019-05-06T03:22:08.212Z,99.90
2019-05-06T03:24:56.919Z,99.90
2019-05-06T03:27:26.431Z,99.90
2019-05-06T03:29:55.932Z,99.90
2019-05-06T03:32:31.078Z,99.90
2019-05-06T03:35:19.305Z,99.90
2019-05-06T03:37:27.690Z,99.90
2019-05-06T03:39:57.183Z,99.90
2019-05-06T03:42:26.665Z,99.90
2019-05-06T03:45:00.082Z,99.90
2019-05-06T03:48:05.402Z,99.90
2019-05-06T03:50:33.662Z,99.90
2019-05-06T03:53:03.872Z,99.90
2019-05-06T03:55:34.457Z,99.90
2019-05-06T03:58:04.534Z,99.90
2019-05-06T04:00:35.130Z,99.90
2019-05-06T04:03:04.682Z,99.90
2019-05-06T04:05:34.244Z,99.90
2019-05-06T04:08:04.044Z,99.90
2019-05-06T04:10:36.839Z,99.90
2019-05-06T04:13:05.908Z,99.90
2019-05-06T04:15:54.028Z,99.90
2019-05-06T04:18:24.855Z,99.90
2019-05-06T04:21:03.785Z,99.90
2019-05-06T04:24:00.092Z,99.90
2019-05-06T04:26:48.823Z,99.90
2019-05-06T04:29:18.420Z,99.90
2019-05-06T04:31:47.903Z,99.90
2019-05-06T04:34:19.558Z,99.90
2019-05-06T04:36:48.758Z,99.90
2019-05-06T04:39:18.252Z,99.90
2019-05-06T04:41:47.721Z,99.90
2019-05-06T04:44:17.347Z,99.90
2019-05-06T04:46:46.808Z,99.90
2019-05-06T04:49:17.040Z,99.90
2019-05-06T04:51:46.513Z,99.90
2019-05-06T04:54:16.006Z,99.90
2019-05-06T04:56:45.472Z,99.90
2019-05-06T04:59:14.991Z,99.90
2019-05-06T05:01:45.485Z,99.90
2019-05-06T05:04:28.364Z,99.90
2019-05-06T05:06:47.218Z,99.90
2019-05-06T05:09:17.546Z,99.90
2019-05-06T05:11:55.094Z,99.90
2019-05-06T05:14:39.306Z,99.90
2019-05-06T05:17:33.122Z,99.90
2019-05-06T05:20:03.087Z,99.90
2019-05-06T05:22:32.697Z,99.90
2019-05-06T05:25:03.502Z,99.90
2019-05-06T05:27:33.331Z,99.90
2019-05-06T05:30:02.864Z,99.90
2019-05-06T05:32:32.347Z,99.90
2019-05-06T05:35:02.164Z,99.90
2019-05-06T05:37:32.839Z,99.90
2019-05-06T05:40:03.015Z,99.90
2019-05-06T05:42:52.128Z,99.90
2019-05-06T05:45:22.156Z,99.90
2019-05-06T05:47:53.628Z,99.90
2019-05-06T05:50:33.362Z,99.90
2019-05-06T05:53:03.102Z,99.90
2019-05-06T05:55:33.043Z,99.90
2019-05-06T05:58:03.348Z,99.90
2019-05-06T06:00:34.547Z,99.90
2019-05-06T06:03:06.799Z,99.90
2019-05-06T06:05:35.554Z,99.90
2019-05-06T06:08:05.058Z,99.90
2019-05-06T06:10:49.416Z,99.90
2019-05-06T06:13:19.237Z,99.90
2019-05-06T06:16:06.286Z,99.90
2019-05-06T06:19:03.829Z,99.90
2019-05-06T06:21:40.032Z,99.90
2019-05-06T06:24:23.718Z,99.90
2019-05-06T06:26:53.783Z,99.90
2019-05-06T06:29:23.341Z,99.90
2019-05-06T06:32:13.746Z,99.90
2019-05-06T06:34:52.139Z,99.90
2019-05-06T06:37:35.077Z,99.90
2019-05-06T06:40:05.087Z,99.90
2019-05-06T06:42:34.625Z,99.90
2019-05-06T06:45:04.296Z,99.90
2019-05-06T06:47:33.898Z,99.90
2019-05-06T06:50:06.247Z,99.90
2019-05-06T06:52:35.758Z,99.90
2019-05-06T06:55:05.762Z,99.90
2019-05-06T06:57:52.496Z,99.90
2019-05-06T07:00:47.382Z,99.90
2019-05-06T07:03:26.690Z,99.90
2019-05-06T07:06:04.211Z,99.90
2019-05-06T07:08:37.347Z,99.90
2019-05-06T07:11:04.903Z,99.90
2019-05-06T07:13:34.613Z,99.90
2019-05-06T07:16:04.145Z,99.90
2019-05-06T07:18:33.631Z,99.90
2019-05-06T07:21:08.167Z,99.90
2019-05-06T07:23:37.701Z,99.90
2019-05-06T07:26:07.238Z,99.90
2019-05-06T07:28:36.757Z,99.10
2019-05-06T07:31:20.694Z,99.70
2019-05-06T07:33:42.707Z,99.60
2019-05-06T07:36:13.070Z,99.00
2019-05-06T07:38:52.383Z,99.20
2019-05-06T07:41:27.288Z,99.00
2019-05-06T07:44:22.638Z,98.40
2019-05-06T07:47:07.681Z,98.80
2019-05-06T07:49:37.211Z,98.60
2019-05-06T07:52:06.709Z,98.80
2019-05-06T07:54:36.277Z,98.70
2019-05-06T07:57:05.750Z,98.60
2019-05-06T07:59:35.297Z,98.20
2019-05-06T08:02:04.879Z,98.00
2019-05-06T08:04:35.480Z,97.80
2019-05-06T08:07:04.969Z,97.90
2019-05-06T08:09:34.493Z,97.70
2019-05-06T08:12:04.009Z,97.50
2019-05-06T08:14:43.574Z,98.00
2019-05-06T08:17:23.890Z,97.50
2019-05-06T08:19:53.468Z,97.50
2019-05-06T08:22:44.189Z,96.40
2019-05-06T08:25:13.827Z,96.90
2019-05-06T08:27:43.304Z,96.80
2019-05-06T08:30:13.303Z,96.50
2019-05-06T08:32:42.860Z,96.10
2019-05-06T08:35:13.578Z,96.20
2019-05-06T08:37:43.166Z,95.30
2019-05-06T08:40:12.977Z,94.60
2019-05-06T08:42:42.794Z,95.50
2019-05-06T08:45:13.162Z,94.40
2019-05-06T08:47:42.809Z,95.20
2019-05-06T08:50:32.523Z,94.70
2019-05-06T08:53:27.229Z,95.00
2019-05-06T08:55:56.927Z,94.30
2019-05-06T08:58:44.020Z,94.40
2019-05-06T09:01:17.590Z,93.30
2019-05-06T09:03:47.070Z,94.20
2019-05-06T09:06:27.033Z,93.80
2019-05-06T09:08:52.012Z,94.20
2019-05-06T09:11:25.216Z,94.00
2019-05-06T09:13:52.251Z,93.50
2019-05-06T09:16:22.393Z,92.90
2019-05-06T09:18:53.304Z,93.00
2019-05-06T09:21:23.027Z,93.50
2019-05-06T09:23:53.213Z,92.70
2019-05-06T09:26:27.486Z,91.90
2019-05-06T09:29:06.857Z,92.20
2019-05-06T09:31:43.959Z,92.10
2019-05-06T09:34:49.550Z,91.80
2019-05-06T09:37:20.163Z,91.20
2019-05-06T09:39:50.085Z,91.90
2019-05-06T09:42:19.602Z,91.40
2019-05-06T09:44:53.658Z,90.30
2019-05-06T09:47:42.389Z,91.10
2019-05-06T09:50:14.594Z,90.60
2019-05-06T09:52:44.151Z,90.80
2019-05-06T09:55:33.972Z,91.90
2019-05-06T09:58:04.923Z,91.60
2019-05-06T10:00:37.766Z,91.60
2019-05-06T10:03:07.967Z,91.70
2019-05-06T10:05:37.491Z,91.70
2019-05-06T10:08:07.202Z,91.70
2019-05-06T10:10:36.680Z,91.60
2019-05-06T10:13:07.427Z,92.40
2019-05-06T10:15:37.009Z,92.50
2019-05-06T10:18:12.758Z,92.20
2019-05-06T10:20:44.058Z,92.30
2019-05-06T10:23:14.224Z,91.90
2019-05-06T10:25:44.197Z,92.00
2019-05-06T10:28:35.388Z,91.70
2019-05-06T10:31:07.105Z,91.60
2019-05-06T10:33:38.146Z,92.00
2019-05-06T10:36:07.666Z,91.90
2019-05-06T10:38:52.954Z,91.40
2019-05-06T10:41:26.427Z,91.60
2019-05-06T10:44:29.389Z,91.70
2019-05-06T10:46:58.924Z,92.00
2019-05-06T10:49:28.418Z,91.50
2019-05-06T10:52:08.121Z,92.10
2019-05-06T10:54:37.641Z,92.10
2019-05-06T10:57:19.309Z,92.10
2019-05-06T10:59:48.834Z,92.40
2019-05-06T11:02:44.334Z,92.40
2019-05-06T11:05:14.025Z,91.80
2019-05-06T11:07:43.581Z,92.00
2019-05-06T11:10:24.368Z,91.90
2019-05-06T11:12:44.957Z,91.70
2019-05-06T11:15:14.691Z,91.60
2019-05-06T11:17:44.318Z,91.60
2019-05-06T11:20:14.238Z,91.70
2019-05-06T11:22:43.871Z,92.00
2019-05-06T11:25:13.619Z,91.90
2019-05-06T11:27:45.068Z,91.90
2019-05-06T11:30:25.578Z,91.70
2019-05-06T11:33:09.495Z,91.80
2019-05-06T11:35:57.739Z,91.50
2019-05-06T11:38:27.240Z,91.50
2019-05-06T11:40:56.803Z,91.20
2019-05-06T11:43:26.254Z,90.80
2019-05-06T11:45:55.770Z,91.00
2019-05-06T11:48:25.285Z,90.50
2019-05-06T11:50:58.265Z,90.40
2019-05-06T11:53:27.888Z,90.50
2019-05-06T11:55:57.340Z,90.30
2019-05-06T11:58:44.395Z,89.10
2019-05-06T12:01:33.095Z,88.80
2019-05-06T12:04:03.067Z,90.10
2019-05-06T12:06:33.161Z,88.40
2019-05-06T12:09:06.419Z,89.70
2019-05-06T12:11:33.993Z,90.00
2019-05-06T12:14:03.662Z,90.10
2019-05-06T12:16:35.358Z,88.90
2019-05-06T12:19:04.965Z,90.30
2019-05-06T12:21:34.551Z,90.30
2019-05-06T12:24:04.154Z,90.60
2019-05-06T12:26:34.072Z,89.60
2019-05-06T12:29:03.627Z,90.00
2019-05-06T12:31:33.140Z,89.70
2019-05-06T12:34:02.935Z,90.30
2019-05-06T12:36:32.768Z,90.40
2019-05-06T12:39:20.336Z,90.60
2019-05-06T12:42:15.474Z,90.40
2019-05-06T12:44:53.485Z,90.00
2019-05-06T12:47:57.351Z,90.20
2019-05-06T12:50:26.885Z,90.20
2019-05-06T12:52:57.909Z,89.90
2019-05-06T12:55:27.519Z,90.10
2019-05-06T12:57:57.063Z,90.20
2019-05-06T13:00:28.702Z,90.00
2019-05-06T13:02:58.216Z,90.20
2019-05-06T13:05:27.803Z,90.20
2019-05-06T13:07:57.314Z,90.50
2019-05-06T13:10:26.843Z,90.30
2019-05-06T13:13:01.059Z,90.00
2019-05-06T13:15:30.733Z,90.10
2019-05-06T13:18:06.530Z,90.20
2019-05-06T13:20:35.682Z,90.50
2019-05-06T13:23:26.917Z,90.80
2019-05-06T13:25:56.397Z,90.40
2019-05-06T13:28:30.339Z,90.20
2019-05-06T13:31:13.387Z,90.40
2019-05-06T13:33:34.356Z,90.70
2019-05-06T13:36:04.227Z,90.30
2019-05-06T13:38:33.760Z,90.30
2019-05-06T13:41:03.478Z,90.60
2019-05-06T13:48:06.833Z,91.00
2019-05-06T13:50:38.504Z,91.00
2019-05-06T13:53:11.799Z,91.10
2019-05-06T13:55:39.307Z,91.30
2019-05-06T13:58:12.383Z,90.80
2019-05-06T14:00:42.418Z,90.70
2019-05-06T14:03:11.417Z,91.10
2019-05-06T14:05:42.486Z,91.30
2019-05-06T14:08:13.034Z,91.30
2019-05-06T14:10:43.943Z,91.60
2019-05-06T14:13:13.395Z,92.20
2019-05-06T14:15:45.927Z,92.50
2019-05-06T14:18:15.449Z,93.30
2019-05-06T14:20:44.910Z,94.70
2019-05-06T14:23:14.644Z,95.90
2019-05-06T14:26:04.205Z,96.00
2019-05-06T14:28:42.759Z,96.40
2019-05-06T14:31:17.060Z,96.30
2019-05-06T14:33:46.564Z,96.40
2019-05-06T14:36:16.073Z,96.80
2019-05-06T14:38:45.569Z,97.10
2019-05-06T14:41:18.245Z,97.00
2019-05-06T14:43:47.752Z,97.40
2019-05-06T14:46:17.407Z,97.40
2019-05-06T14:48:46.945Z,96.90
2019-05-06T14:51:16.562Z,97.10
2019-05-06T14:53:46.022Z,97.10
2019-05-06T14:56:22.588Z,96.60
2019-05-06T14:59:08.147Z,96.60
2019-05-06T15:01:39.049Z,96.30
2019-05-06T15:04:08.491Z,97.30
2019-05-06T15:06:38.013Z,97.10
2019-05-06T15:09:09.007Z,97.20
2019-05-06T15:11:38.606Z,96.90
2019-05-06T15:14:08.093Z,96.50
2019-05-06T15:16:37.802Z,96.70
2019-05-06T15:19:07.329Z,96.90
2019-05-06T15:21:38.850Z,96.70
2019-05-06T15:24:07.992Z,96.50
2019-05-06T15:26:37.530Z,96.50
2019-05-06T15:29:07.061Z,96.80
2019-05-06T15:32:02.625Z,97.10
2019-05-06T15:34:42.284Z,97.00
2019-05-06T15:37:18.887Z,97.30
2019-05-06T15:39:48.449Z,97.50
2019-05-06T15:42:17.926Z,96.50
2019-05-06T15:44:47.496Z,96.50
2019-05-06T15:47:16.994Z,96.50
2019-05-06T15:49:46.467Z,96.40
2019-05-06T15:52:16.026Z,96.40
2019-05-06T15:54:45.539Z,96.30
2019-05-06T15:57:15.121Z,97.00
2019-05-06T15:59:44.671Z,97.30
2019-05-06T16:02:14.191Z,97.50
2019-05-06T16:04:43.805Z,97.40
2019-05-06T16:07:14.627Z,97.40
2019-05-06T16:09:47.078Z,97.80
2019-05-06T16:12:16.639Z,98.00
2019-05-06T16:14:48.612Z,98.30
2019-05-06T16:17:18.327Z,98.50
2019-05-06T16:19:47.863Z,98.50
2019-05-06T16:22:17.396Z,98.50
2019-05-06T16:24:53.093Z,98.60
2019-05-06T16:27:23.039Z,98.50
2019-05-06T16:29:53.040Z,98.40
2019-05-06T16:32:22.622Z,98.30
2019-05-06T16:34:52.581Z,98.20
2019-05-06T16:37:22.340Z,98.20
2019-05-06T16:39:54.540Z,98.10
2019-05-06T16:42:23.591Z,98.20
2019-05-06T16:44:53.178Z,98.60
2019-05-06T16:47:38.771Z,98.30
2019-05-06T16:50:12.863Z,98.40
2019-05-06T16:52:42.604Z,98.00
2019-05-06T16:55:17.231Z,98.10
2019-05-06T16:57:53.046Z,97.90
2019-05-06T17:00:24.719Z,98.00
2019-05-06T17:03:04.152Z,97.90
2019-05-06T17:05:42.589Z,97.90
2019-05-06T17:08:12.369Z,98.30
2019-05-06T17:10:43.300Z,98.40
2019-05-06T17:13:12.979Z,98.40
2019-05-06T17:15:42.448Z,99.00
2019-05-06T17:18:15.041Z,98.60
2019-05-06T17:20:44.570Z,98.50
2019-05-06T17:23:14.148Z,98.70
2019-05-06T17:25:44.753Z,98.90
2019-05-06T17:28:24.290Z,99.20
2019-05-06T17:31:07.366Z,99.20
2019-05-06T17:33:42.861Z,99.00
2019-05-06T17:36:14.378Z,99.10
2019-05-06T17:38:46.449Z,99.00
2019-05-06T17:41:15.974Z,99.30
2019-05-06T17:43:45.581Z,99.20
2019-05-06T17:46:17.125Z,99.20
2019-05-06T17:49:02.370Z,99.20
2019-05-06T17:51:57.061Z,99.20
2019-05-06T17:54:28.266Z,99.30
2019-05-06T17:56:57.886Z,99.20
2019-05-06T17:59:27.517Z,99.20
2019-05-06T18:02:01.273Z,99.30
2019-05-06T18:04:31.062Z,99.50
2019-05-06T18:07:00.830Z,99.30
2019-05-06T18:09:30.436Z,99.50
2019-05-06T18:12:02.842Z,99.60
2019-05-06T18:14:33.160Z,99.60
2019-05-06T18:17:04.242Z,99.70
2019-05-06T18:19:33.911Z,99.70
2019-05-06T18:22:03.615Z,99.90
2019-05-06T18:24:33.768Z,99.90
2019-05-06T18:27:03.398Z,99.80
2019-05-06T18:29:33.549Z,99.90
2019-05-06T18:32:03.916Z,99.90
2019-05-06T18:34:33.502Z,99.90
2019-05-06T18:37:06.105Z,99.90
2019-05-06T18:39:35.623Z,99.90
2019-05-06T18:42:15.496Z,99.90
2019-05-06T18:44:36.434Z,99.90
2019-05-06T18:47:08.294Z,99.90
2019-05-06T18:49:39.880Z,99.90
2019-05-06T18:52:09.585Z,99.90
2019-05-06T18:54:39.102Z,99.90
2019-05-06T18:57:08.600Z,99.90
2019-05-06T18:59:38.182Z,99.90
2019-05-06T19:02:07.698Z,99.90
2019-05-06T19:04:52.324Z,99.90
2019-05-06T19:07:22.174Z,99.90
2019-05-06T19:10:03.219Z,99.90
2019-05-06T19:12:40.778Z,99.90
2019-05-06T19:15:04.156Z,99.90
2019-05-06T19:17:33.772Z,99.90
2019-05-06T19:20:03.296Z,99.90
2019-05-06T19:22:32.979Z,99.90
2019-05-06T19:25:02.820Z,99.90
2019-05-06T19:27:33.409Z,99.90
2019-05-06T19:30:03.148Z,99.90
2019-05-06T19:32:35.123Z,99.90
2019-05-06T19:35:03.781Z,99.90
2019-05-06T19:37:33.305Z,99.90
2019-05-06T19:40:03.067Z,99.90
2019-05-06T19:42:46.118Z,99.90
2019-05-06T19:45:03.957Z,99.90
2019-05-06T19:47:34.200Z,99.90
2019-05-06T19:50:03.803Z,99.90
2019-05-06T19:52:33.364Z,99.90
2019-05-06T19:55:03.256Z,99.90
2019-05-06T19:57:32.857Z,99.90
2019-05-06T20:00:03.194Z,99.90
2019-05-06T20:02:32.957Z,99.90
2019-05-06T20:05:06.924Z,99.90
2019-05-06T20:08:07.113Z,99.90
2019-05-06T20:10:44.375Z,99.90
2019-05-06T20:13:13.850Z,99.90
2019-05-06T20:15:43.355Z,99.90
2019-05-06T20:18:12.842Z,99.90
2019-05-06T20:20:42.614Z,99.90
2019-05-06T20:23:12.640Z,99.90
2019-05-06T20:25:44.727Z,99.90
2019-05-06T20:28:13.470Z,99.90
2019-05-06T20:30:42.955Z,99.90
2019-05-06T20:33:14.697Z,99.90
2019-05-06T20:35:44.222Z,99.90
2019-05-06T20:38:13.744Z,99.90
2019-05-06T20:40:43.375Z,99.90
2019-05-06T20:43:20.057Z,99.90
2019-05-06T20:45:44.179Z,99.90
2019-05-06T20:48:13.670Z,99.90
2019-05-06T20:50:43.258Z,99.90
2019-05-06T20:53:12.947Z,99.90
2019-05-06T20:55:43.325Z,99.90
2019-05-06T20:58:13.180Z,99.90
2019-05-06T21:00:43.161Z,99.90
2019-05-06T21:03:12.848Z,99.90
2019-05-06T21:05:43.431Z,99.90
2019-05-06T21:08:13.934Z,99.90
2019-05-06T21:10:43.781Z,99.90
2019-05-06T21:13:17.543Z,99.90
2019-05-06T21:15:44.557Z,99.90
2019-05-06T21:18:14.080Z,99.90
2019-05-06T21:20:43.803Z,99.90
2019-05-06T21:23:13.457Z,99.90
2019-05-06T21:25:43.263Z,99.90
2019-05-06T21:28:12.862Z,99.90
2019-05-06T21:30:42.968Z,99.90
2019-05-06T21:33:12.726Z,99.90
2019-05-06T21:35:42.514Z,99.90
2019-05-06T21:38:12.390Z,99.90
2019-05-06T21:40:43.404Z,99.90
2019-05-06T21:43:13.300Z,99.90
2019-05-06T21:45:42.842Z,99.90
2019-05-06T21:48:13.800Z,99.90
2019-05-06T21:50:43.408Z,99.90
2019-05-06T21:53:14.669Z,99.90
2019-05-06T21:55:44.139Z,99.90
2019-05-06T21:58:13.622Z,99.90
2019-05-06T22:00:49.755Z,99.90
2019-05-06T22:03:18.966Z,99.90
2019-05-06T22:05:48.185Z,99.90
2019-05-06T22:08:17.314Z,99.90
2019-05-06T22:10:46.517Z,99.90
2019-05-06T22:13:15.611Z,99.90
2019-05-06T22:15:44.842Z,99.90
2019-05-06T22:18:14.030Z,99.90
2019-05-06T22:21:02.878Z,99.90
2019-05-06T22:23:52.410Z,99.90
2019-05-06T22:26:23.204Z,99.90
2019-05-06T22:28:53.018Z,99.90
2019-05-06T22:31:24.371Z,99.90
2019-05-06T22:33:53.606Z,99.90
2019-05-06T22:36:41.174Z,99.90
2019-05-06T22:39:12.034Z,99.90
2019-05-06T22:41:41.518Z,99.90
2019-05-06T22:44:14.087Z,99.90
2019-05-06T22:46:42.450Z,99.90
2019-05-06T22:49:13.351Z,99.90
2019-05-06T22:51:42.826Z,99.90
2019-05-06T22:54:12.188Z,99.90
2019-05-06T22:56:41.534Z,99.90
2019-05-06T22:59:12.664Z,99.90
2019-05-06T23:01:55.127Z,99.90
2019-05-06T23:04:26.249Z,99.90
2019-05-06T23:06:55.596Z,99.90
2019-05-06T23:09:25.172Z,99.90
2019-05-06T23:11:54.524Z,99.90
2019-05-06T23:14:31.059Z,99.90
2019-05-06T23:16:54.842Z,99.90
2019-05-06T23:19:24.589Z,99.90
2019-05-06T23:21:54.064Z,99.90
2019-05-06T23:24:26.217Z,99.90
2019-05-06T23:26:55.573Z,99.90
2019-05-06T23:29:24.928Z,99.90
2019-05-06T23:31:54.481Z,99.90
2019-05-06T23:34:23.872Z,99.90
2019-05-06T23:37:26.688Z,99.90
2019-05-06T23:40:39.911Z,99.90
2019-05-06T23:43:45.279Z,99.90
2019-05-06T23:46:52.799Z,99.90
2019-05-06T23:49:57.951Z,99.90
2019-05-06T23:53:03.335Z,99.90
2019-05-06T23:56:08.286Z,99.90
2019-05-06T23:58:37.636Z,99.90
